Goodhue, MN

6:25 AM CST on December 22, 2014 (GMT -0600)
Covered Bridge Park | Change Station
CLOSE
Current Station
Personal Weather Station
Location: Zumbrota, MN
Elevation: 979 ft
Nearby Weather Stations

Elev 979 ft 44.30 °N, 92.68 °W | Updated 1 second ago

Overcast
Overcast
36.3 °F
Feels Like 31 °F
N
6.6
Wind Variable Wind from SSE
Gusts 15.0 mph

Today
High -- | Low -- °F
--% Chance of Precip.
Yesterday
High -- | Low -- °F
Precip. -- in
7:43 AM 4:34 PM
New Moon, 0% visible
Pressure 29.71 in
Visibility 1.5 miles
Clouds Overcast 600 ft
Windchill 31 °F
Dew Point 34 °F
Humidity 93%
Rainfall 0.00 in
Snow Depth Not available.
UV 0.0 out of 12
Pollen .10 out of 12
Air Quality Not available.
Flu Activity Not available.
METAR KRGK 221211Z AUTO 14009G15KT 1 1/2SM BR OVC006 03/02 A2971 RMK AO2

More Conditions Fewer Conditions

Pressure 29.71 in
Visibility 1.5 miles
Clouds Overcast 600 ft
Windchill 31 °F
Dew Point 34 °F
Humidity 93%
Rainfall 0.00 in
Snow Depth Not available.
UV 0.0 out of 12
Pollen .10 out of 12
Air Quality Not available.
Flu Activity Not available.
METAR KRGK 221211Z AUTO 14009G15KT 1 1/2SM BR OVC006 03/02 A2971 RMK AO2

More Conditions Fewer Conditions

10-Day Weather Forecast

Almanac

Astronomy

Dec. 22, 2014 Rise Set
Actual Time
Civil Twilight
Nautical Twilight
Astronomical Twilight
Moon
Length of Visible Light
Length of Day
Tomorrow will be .
, % of the Moon is Illuminated

Today's Extremes

State Highs State Lows

Community

WunderPhotos

Upload Photos

1,779,595 photos uploaded!

WunderBlogs® & News

Nearby

Air Quality

  Air Quality AQ Index Pollutant
Not available.

Snow Depth

Station Depth Elevation

Earthquake Activity

City Distance Mag. Time & Date
Minimum magnitude displayed is 2.5.

Coastal Water Temperatures

Place Temperature

Nearby Weather Stations